createdAt,value
2018-09-09T00:00:08.442Z,12.21
2018-09-09T00:01:08.681Z,12.17
2018-09-09T00:02:08.911Z,12.16
2018-09-09T00:03:09.147Z,12.01
2018-09-09T00:04:09.387Z,12.04
2018-09-09T00:05:09.624Z,11.99
2018-09-09T00:06:09.864Z,11.99
2018-09-09T00:07:10.104Z,11.95
2018-09-09T00:08:10.342Z,11.96
2018-09-09T00:09:10.574Z,11.96
2018-09-09T00:10:10.821Z,11.90
2018-09-09T00:11:11.057Z,11.85
2018-09-09T00:12:11.302Z,11.94
2018-09-09T00:13:11.538Z,11.88
2018-09-09T00:14:11.780Z,11.95
2018-09-09T00:15:12.024Z,11.96
2018-09-09T00:16:12.261Z,11.94
2018-09-09T00:17:12.494Z,12.19
2018-09-09T00:18:12.739Z,12.34
2018-09-09T00:19:12.976Z,12.47
2018-09-09T00:20:13.216Z,12.49
2018-09-09T00:21:13.451Z,12.56
2018-09-09T00:22:13.694Z,12.42
2018-09-09T00:23:13.932Z,12.41
2018-09-09T00:24:14.162Z,12.38
2018-09-09T00:25:14.400Z,12.46
2018-09-09T00:26:14.645Z,12.59
2018-09-09T00:27:14.882Z,12.46
2018-09-09T00:28:15.119Z,12.57
2018-09-09T00:29:15.356Z,12.65
2018-09-09T00:30:15.597Z,12.65
2018-09-09T00:31:15.829Z,12.64
2018-09-09T00:32:16.079Z,12.60
2018-09-09T00:33:16.319Z,12.74
2018-09-09T00:34:16.559Z,12.78
2018-09-09T00:35:16.796Z,12.87
2018-09-09T00:36:17.034Z,12.86
2018-09-09T00:37:17.272Z,12.90
2018-09-09T00:38:17.509Z,12.92
2018-09-09T00:39:17.749Z,12.97
2018-09-09T00:40:17.993Z,12.92
2018-09-09T00:41:18.232Z,12.86
2018-09-09T00:42:18.469Z,12.71
2018-09-09T00:43:18.700Z,12.72
2018-09-09T00:44:18.930Z,12.60
2018-09-09T00:45:19.184Z,12.64
2018-09-09T00:46:19.418Z,12.64
2018-09-09T00:47:19.659Z,12.60
2018-09-09T00:48:19.893Z,12.49
2018-09-09T00:49:20.128Z,12.46
2018-09-09T00:50:20.364Z,12.45
2018-09-09T00:51:20.601Z,12.29
2018-09-09T00:52:20.841Z,12.28
2018-09-09T00:53:21.078Z,12.29
2018-09-09T00:54:21.323Z,12.32
2018-09-09T00:55:21.555Z,12.41
2018-09-09T00:56:21.795Z,12.38
2018-09-09T00:57:22.034Z,12.49
2018-09-09T00:58:22.269Z,12.47
2018-09-09T00:59:22.508Z,12.56
2018-09-09T01:00:22.748Z,12.59
2018-09-09T01:01:22.985Z,12.68
2018-09-09T01:02:23.225Z,12.56
2018-09-09T01:03:23.461Z,12.52
2018-09-09T01:04:23.695Z,12.47
2018-09-09T01:05:23.930Z,12.45
2018-09-09T01:06:24.168Z,12.32
2018-09-09T01:07:24.405Z,12.32
2018-09-09T01:08:24.642Z,12.37
2018-09-09T01:09:24.880Z,12.45
2018-09-09T01:10:25.120Z,12.47
2018-09-09T01:11:25.356Z,12.53
2018-09-09T01:12:25.634Z,12.57
2018-09-09T01:13:25.838Z,12.47
2018-09-09T01:14:26.073Z,12.41
2018-09-09T01:15:26.314Z,12.34
2018-09-09T01:16:26.552Z,12.31
2018-09-09T01:17:26.787Z,12.35
2018-09-09T01:18:27.024Z,12.28
2018-09-09T01:19:27.263Z,12.19
2018-09-09T01:20:27.503Z,12.19
2018-09-09T01:21:27.741Z,12.20
2018-09-09T01:22:27.978Z,12.14
2018-09-09T01:23:28.221Z,12.17
2018-09-09T01:24:28.461Z,12.16
2018-09-09T01:25:28.696Z,12.12
2018-09-09T01:26:28.936Z,12.05
2018-09-09T01:27:29.175Z,12.09
2018-09-09T01:28:29.413Z,11.96
2018-09-09T01:29:29.653Z,11.98
2018-09-09T01:30:29.891Z,11.90
2018-09-09T01:31:30.130Z,11.94
2018-09-09T01:32:30.364Z,11.94
2018-09-09T01:33:30.635Z,12.01
2018-09-09T01:34:30.836Z,12.05
2018-09-09T01:35:31.079Z,12.05
2018-09-09T01:36:31.312Z,12.19
2018-09-09T01:37:31.547Z,12.14
2018-09-09T01:38:31.789Z,12.23
2018-09-09T01:39:32.025Z,12.35
2018-09-09T01:40:32.261Z,12.42
2018-09-09T01:41:32.499Z,12.46
2018-09-09T01:42:32.737Z,12.49
2018-09-09T01:43:32.976Z,12.60
2018-09-09T01:44:33.214Z,12.59
2018-09-09T01:45:41.079Z,12.65
2018-09-09T01:46:42.371Z,12.62
2018-09-09T01:47:34.121Z,12.62
2018-09-09T01:48:34.360Z,12.54
2018-09-09T01:49:34.600Z,12.59
2018-09-09T01:50:34.828Z,12.53
2018-09-09T01:51:35.065Z,12.47
2018-09-09T01:52:35.303Z,12.37
2018-09-09T01:53:35.543Z,12.37
2018-09-09T01:54:35.785Z,12.24
2018-09-09T01:55:36.017Z,12.19
2018-09-09T01:56:36.255Z,12.05
2018-09-09T01:57:36.493Z,11.99
2018-09-09T01:58:36.730Z,11.95
2018-09-09T01:59:36.973Z,11.94
2018-09-09T02:00:37.213Z,11.94
2018-09-09T02:01:37.456Z,11.86
2018-09-09T02:02:37.696Z,11.86
2018-09-09T02:03:37.936Z,11.82
2018-09-09T02:04:38.174Z,11.85
2018-09-09T02:05:38.407Z,11.99
2018-09-09T02:06:38.649Z,11.96
2018-09-09T02:07:38.894Z,11.83
2018-09-09T02:08:39.125Z,11.80
2018-09-09T02:09:39.362Z,11.75
2018-09-09T02:10:39.600Z,11.76
2018-09-09T02:11:39.839Z,11.64
2018-09-09T02:12:40.076Z,11.62
2018-09-09T02:13:40.313Z,11.61
2018-09-09T02:14:40.552Z,11.55
2018-09-09T02:15:40.789Z,11.58
2018-09-09T02:16:41.026Z,11.57
2018-09-09T02:17:41.263Z,11.54
2018-09-09T02:18:41.506Z,11.49
2018-09-09T02:19:41.740Z,11.52
2018-09-09T02:20:41.989Z,11.61
2018-09-09T02:21:42.214Z,11.57
2018-09-09T02:22:42.454Z,11.57
2018-09-09T02:23:42.700Z,11.62
2018-09-09T02:24:42.930Z,11.57
2018-09-09T02:25:43.234Z,11.49
2018-09-09T02:26:43.408Z,11.49
2018-09-09T02:27:43.644Z,11.51
2018-09-09T02:28:43.886Z,11.70
2018-09-09T02:29:44.124Z,11.80
2018-09-09T02:30:44.361Z,11.88
2018-09-09T02:31:44.598Z,11.91
2018-09-09T02:32:44.832Z,11.94
2018-09-09T02:33:45.078Z,11.94
2018-09-09T02:34:45.311Z,11.85
2018-09-09T02:35:45.553Z,11.85
2018-09-09T02:36:45.791Z,11.75
2018-09-09T02:37:46.044Z,11.75
2018-09-09T02:38:46.257Z,11.61
2018-09-09T02:39:46.498Z,11.57
2018-09-09T02:40:46.729Z,11.65
2018-09-09T02:41:46.969Z,11.69
2018-09-09T02:42:47.207Z,11.90
2018-09-09T02:43:47.485Z,12.05
2018-09-09T02:44:47.682Z,12.02
2018-09-09T02:45:47.914Z,12.02
2018-09-09T02:46:48.152Z,12.04
2018-09-09T02:47:48.394Z,11.95
2018-09-09T02:48:48.619Z,11.85
2018-09-09T02:49:48.860Z,11.76
2018-09-09T02:50:49.099Z,11.67
2018-09-09T02:51:49.336Z,11.62
2018-09-09T02:52:49.575Z,11.60
2018-09-09T02:53:49.813Z,11.47
2018-09-09T02:54:50.051Z,11.37
2018-09-09T02:55:50.286Z,11.29
2018-09-09T02:56:50.525Z,11.35
2018-09-09T02:57:50.762Z,11.51
2018-09-09T02:58:51.005Z,11.49
2018-09-09T02:59:51.248Z,11.58
2018-09-09T03:00:51.475Z,11.47
2018-09-09T03:01:51.715Z,11.58
2018-09-09T03:02:51.955Z,11.62
2018-09-09T03:03:52.191Z,11.62
2018-09-09T03:04:52.427Z,11.75
2018-09-09T03:05:52.663Z,11.75
2018-09-09T03:06:52.909Z,11.70
2018-09-09T03:07:53.135Z,11.82
2018-09-09T03:08:53.371Z,11.94
2018-09-09T03:09:53.608Z,12.02
2018-09-09T03:10:53.847Z,12.05
2018-09-09T03:11:54.094Z,11.99
2018-09-09T03:12:54.321Z,12.02
2018-09-09T03:13:54.564Z,12.10
2018-09-09T03:14:54.802Z,12.09
2018-09-09T03:15:55.040Z,11.95
2018-09-09T03:16:55.279Z,11.90
2018-09-09T03:17:55.522Z,11.83
2018-09-09T03:18:55.755Z,11.78
2018-09-09T03:19:55.997Z,11.72
2018-09-09T03:20:56.231Z,11.65
2018-09-09T03:21:56.469Z,11.55
2018-09-09T03:22:56.710Z,11.49
2018-09-09T03:23:56.939Z,11.43
2018-09-09T03:24:57.175Z,11.39
2018-09-09T03:25:57.400Z,11.32
2018-09-09T03:26:57.636Z,11.25
2018-09-09T03:27:57.888Z,11.17
2018-09-09T03:28:58.112Z,11.06
2018-09-09T03:29:58.352Z,11.06
2018-09-09T03:30:58.586Z,10.97
2018-09-09T03:31:58.823Z,11.02
2018-09-09T03:32:59.061Z,10.86
2018-09-09T03:33:59.300Z,10.91
2018-09-09T03:34:59.536Z,10.88
2018-09-09T03:35:59.774Z,10.70
2018-09-09T03:37:00.016Z,10.70
2018-09-09T03:38:00.250Z,10.73
2018-09-09T03:39:00.476Z,10.66
2018-09-09T03:40:00.719Z,10.66
2018-09-09T03:41:00.956Z,10.73
2018-09-09T03:42:01.193Z,10.61
2018-09-09T03:43:01.435Z,10.56
2018-09-09T03:44:01.670Z,10.59
2018-09-09T03:45:09.539Z,10.61
2018-09-09T03:46:02.207Z,10.45
2018-09-09T03:47:02.442Z,10.66
2018-09-09T03:48:02.680Z,10.59
2018-09-09T03:49:02.931Z,10.55
2018-09-09T03:50:03.150Z,10.51
2018-09-09T03:51:03.389Z,10.60
2018-09-09T03:52:03.623Z,10.45
2018-09-09T03:53:03.859Z,10.55
2018-09-09T03:54:04.100Z,10.66
2018-09-09T03:55:04.343Z,10.85
2018-09-09T03:56:04.579Z,11.06
2018-09-09T03:57:04.816Z,11.11
2018-09-09T03:58:05.046Z,11.14
2018-09-09T03:59:05.286Z,11.15
2018-09-09T04:00:05.524Z,11.21
2018-09-09T04:01:05.763Z,11.25
2018-09-09T04:02:05.998Z,11.22
2018-09-09T04:03:06.239Z,11.06
2018-09-09T04:04:06.473Z,11.06
2018-09-09T04:05:06.712Z,11.03
2018-09-09T04:06:06.952Z,11.04
2018-09-09T04:07:07.189Z,11.04
2018-09-09T04:08:07.426Z,11.00
2018-09-09T04:09:07.663Z,11.04
2018-09-09T04:10:07.907Z,11.04
2018-09-09T04:11:08.140Z,11.04
2018-09-09T04:12:08.379Z,11.14
2018-09-09T04:13:08.622Z,11.18
2018-09-09T04:14:08.856Z,11.21
2018-09-09T04:15:09.096Z,11.19
2018-09-09T04:16:09.344Z,11.19
2018-09-09T04:17:09.567Z,11.15
2018-09-09T04:18:09.810Z,11.19
2018-09-09T04:19:10.053Z,11.06
2018-09-09T04:20:10.289Z,10.97
2018-09-09T04:21:10.526Z,10.86
2018-09-09T04:22:10.763Z,10.86
2018-09-09T04:23:11.001Z,10.76
2018-09-09T04:24:11.241Z,10.74
2018-09-09T04:25:11.479Z,10.68
2018-09-09T04:26:11.715Z,10.78
2018-09-09T04:27:11.955Z,10.79
2018-09-09T04:28:12.184Z,10.82
2018-09-09T04:29:12.424Z,10.84
2018-09-09T04:30:12.661Z,10.89
2018-09-09T04:31:12.893Z,11.00
2018-09-09T04:32:13.133Z,11.06
2018-09-09T04:33:13.371Z,11.14
2018-09-09T04:34:13.614Z,11.15
2018-09-09T04:35:13.863Z,11.27
2018-09-09T04:36:14.091Z,11.29
2018-09-09T04:37:14.334Z,11.32
2018-09-09T04:38:14.574Z,11.32
2018-09-09T04:39:14.810Z,11.40
2018-09-09T04:40:15.051Z,11.33
2018-09-09T04:41:15.288Z,11.32
2018-09-09T04:42:15.519Z,11.35
2018-09-09T04:43:15.755Z,11.37
2018-09-09T04:44:15.985Z,11.35
2018-09-09T04:45:16.231Z,11.28
2018-09-09T04:46:16.518Z,11.32
2018-09-09T04:47:16.704Z,11.37
2018-09-09T04:48:16.942Z,11.40
2018-09-09T04:49:17.185Z,11.40
2018-09-09T04:50:17.426Z,11.27
2018-09-09T04:51:17.666Z,11.29
2018-09-09T04:52:17.899Z,11.29
2018-09-09T04:53:18.136Z,11.29
2018-09-09T04:54:18.379Z,11.33
2018-09-09T04:55:18.616Z,11.36
2018-09-09T04:56:18.860Z,11.42
2018-09-09T04:57:19.096Z,11.36
2018-09-09T04:58:19.333Z,11.36
2018-09-09T04:59:19.577Z,11.40
2018-09-09T05:00:19.819Z,11.43
2018-09-09T05:01:20.108Z,11.44
2018-09-09T05:02:20.290Z,11.47
2018-09-09T05:03:20.529Z,11.49
2018-09-09T05:04:20.764Z,11.47
2018-09-09T05:05:21.006Z,11.60
2018-09-09T05:06:21.244Z,11.60
2018-09-09T05:07:21.481Z,11.65
2018-09-09T05:08:21.717Z,11.61
2018-09-09T05:09:21.967Z,11.67
2018-09-09T05:10:22.197Z,11.73
2018-09-09T05:11:22.438Z,11.69
2018-09-09T05:12:22.676Z,11.75
2018-09-09T05:13:22.916Z,11.82
2018-09-09T05:14:23.155Z,11.79
2018-09-09T05:15:23.398Z,11.94
2018-09-09T05:16:23.636Z,11.91
2018-09-09T05:17:23.877Z,11.96
2018-09-09T05:18:24.115Z,12.01
2018-09-09T05:19:24.359Z,12.09
2018-09-09T05:20:24.595Z,12.01
2018-09-09T05:21:24.848Z,12.13
2018-09-09T05:22:25.119Z,12.16
2018-09-09T05:23:25.358Z,12.16
2018-09-09T05:24:25.598Z,12.16
2018-09-09T05:25:25.835Z,12.16
2018-09-09T05:26:26.075Z,12.16
2018-09-09T05:27:26.314Z,12.24
2018-09-09T05:28:26.553Z,12.38
2018-09-09T05:29:26.793Z,12.34
2018-09-09T05:30:27.039Z,12.29
2018-09-09T05:31:27.277Z,12.31
2018-09-09T05:32:27.515Z,12.28
2018-09-09T05:33:27.753Z,12.35
2018-09-09T05:34:27.993Z,12.41
2018-09-09T05:35:28.230Z,12.31
2018-09-09T05:36:28.473Z,12.27
2018-09-09T05:37:28.710Z,12.23
2018-09-09T05:38:28.950Z,12.20
2018-09-09T05:39:29.187Z,12.24
2018-09-09T05:40:29.431Z,12.31
2018-09-09T05:41:29.665Z,12.45
2018-09-09T05:42:29.898Z,12.45
2018-09-09T05:43:30.139Z,12.60
2018-09-09T05:44:30.431Z,12.68
2018-09-09T05:45:30.611Z,12.72
2018-09-09T05:46:30.856Z,12.68
2018-09-09T05:47:31.096Z,12.62
2018-09-09T05:48:31.336Z,12.56
2018-09-09T05:49:31.581Z,12.62
2018-09-09T05:50:31.825Z,12.53
2018-09-09T05:51:32.053Z,12.65
2018-09-09T05:52:32.292Z,12.72
2018-09-09T05:53:32.529Z,12.82
2018-09-09T05:54:32.770Z,12.89
2018-09-09T05:55:33.001Z,12.86
2018-09-09T05:56:33.238Z,12.87
2018-09-09T05:57:33.478Z,12.90
2018-09-09T05:58:33.718Z,12.87
2018-09-09T05:59:33.959Z,12.75
2018-09-09T06:00:34.203Z,12.77
2018-09-09T06:01:34.434Z,12.86
2018-09-09T06:02:34.673Z,12.75
2018-09-09T06:03:34.910Z,12.65
2018-09-09T06:04:35.152Z,12.59
2018-09-09T06:05:35.394Z,12.57
2018-09-09T06:06:35.630Z,12.57
2018-09-09T06:07:35.868Z,12.53
2018-09-09T06:08:36.106Z,12.59
2018-09-09T06:09:36.347Z,12.67
2018-09-09T06:10:36.584Z,12.62
2018-09-09T06:11:36.822Z,12.71
2018-09-09T06:12:37.061Z,12.71
2018-09-09T06:13:37.301Z,12.92
2018-09-09T06:14:37.540Z,13.10
2018-09-09T06:15:37.781Z,13.07
2018-09-09T06:16:38.018Z,13.10
2018-09-09T06:17:38.255Z,13.08
2018-09-09T06:18:38.500Z,13.15
2018-09-09T06:19:38.733Z,13.17
2018-09-09T06:20:38.971Z,13.25
2018-09-09T06:21:39.208Z,13.33
2018-09-09T06:22:39.449Z,13.36
2018-09-09T06:23:39.690Z,13.52
2018-09-09T06:24:39.928Z,13.64
2018-09-09T06:25:40.168Z,13.70
2018-09-09T06:26:40.405Z,13.79
2018-09-09T06:27:40.648Z,13.85
2018-09-09T06:28:40.888Z,14.18
2018-09-09T06:29:41.127Z,14.12
2018-09-09T06:30:41.367Z,14.39
2018-09-09T06:31:41.607Z,14.54
2018-09-09T06:32:41.849Z,14.65
2018-09-09T06:33:42.140Z,14.98
2018-09-09T06:34:42.323Z,15.19
2018-09-09T06:35:42.561Z,15.32
2018-09-09T06:36:42.801Z,15.39
2018-09-09T06:37:43.043Z,15.54
2018-09-09T06:38:43.281Z,15.72
2018-09-09T06:39:43.519Z,16.08
2018-09-09T06:40:43.761Z,16.42
2018-09-09T06:41:44.000Z,16.60
2018-09-09T06:42:44.241Z,16.67
2018-09-09T06:43:44.481Z,16.78
2018-09-09T06:44:44.722Z,16.58
2018-09-09T06:45:44.962Z,16.49
2018-09-09T06:46:45.203Z,16.83
2018-09-09T06:47:45.445Z,17.07
2018-09-09T06:48:45.682Z,17.30
2018-09-09T06:49:45.927Z,17.68
2018-09-09T06:50:46.165Z,18.45
2018-09-09T06:51:46.409Z,19.83
2018-09-09T06:52:46.687Z,21.19
2018-09-09T06:53:46.931Z,22.06
2018-09-09T06:54:47.172Z,21.68
2018-09-09T06:55:47.416Z,22.39
2018-09-09T06:56:47.656Z,23.32
2018-09-09T06:57:47.899Z,23.63
2018-09-09T06:58:48.140Z,23.15
2018-09-09T06:59:48.386Z,22.45
2018-09-09T07:00:48.635Z,21.91
2018-09-09T07:01:48.890Z,21.29
2018-09-09T07:02:49.135Z,20.80
2018-09-09T07:03:49.378Z,20.58
2018-09-09T07:04:49.626Z,19.29
2018-09-09T07:05:49.868Z,19.23
2018-09-09T07:06:50.112Z,19.16
2018-09-09T07:07:50.355Z,18.65
2018-09-09T07:08:50.659Z,18.67
2018-09-09T07:09:50.911Z,18.69
2018-09-09T07:10:51.171Z,18.91
2018-09-09T07:11:51.559Z,19.37
2018-09-09T07:12:51.643Z,19.65
2018-09-09T07:13:51.889Z,19.91
2018-09-09T07:14:52.130Z,20.06
2018-09-09T07:15:52.376Z,20.38
2018-09-09T07:16:52.622Z,20.72
2018-09-09T07:17:52.863Z,20.79
2018-09-09T07:18:53.108Z,20.31
2018-09-09T07:19:53.351Z,20.32
2018-09-09T07:20:53.596Z,19.84
2018-09-09T07:21:53.842Z,19.80
2018-09-09T07:22:54.077Z,19.78
2018-09-09T07:23:54.325Z,20.10
2018-09-09T07:24:54.568Z,20.23
2018-09-09T07:25:54.813Z,20.24
2018-09-09T07:26:55.056Z,20.21
2018-09-09T07:27:55.302Z,20.02
2018-09-09T07:28:55.548Z,19.83
2018-09-09T07:29:55.793Z,19.81
2018-09-09T07:30:56.038Z,19.76
2018-09-09T07:31:56.281Z,19.83
2018-09-09T07:32:56.527Z,19.80
2018-09-09T07:33:56.772Z,19.83
2018-09-09T07:34:57.019Z,19.65
2018-09-09T07:35:57.264Z,19.69
2018-09-09T07:36:57.510Z,19.77
2018-09-09T07:37:57.751Z,19.88
2018-09-09T07:38:57.997Z,19.80
2018-09-09T07:39:58.239Z,19.77
2018-09-09T07:40:58.484Z,19.47
2018-09-09T07:42:06.352Z,19.56
2018-09-09T07:42:59.027Z,19.69
2018-09-09T07:43:59.272Z,19.92
2018-09-09T07:44:59.519Z,20.33
2018-09-09T07:45:59.765Z,20.21
2018-09-09T07:47:00.009Z,20.54
2018-09-09T07:48:00.289Z,20.76
2018-09-09T07:49:00.495Z,20.88
2018-09-09T07:50:00.741Z,20.70
2018-09-09T07:51:00.985Z,20.64
2018-09-09T07:52:01.232Z,20.50
2018-09-09T07:53:01.476Z,19.65
2018-09-09T07:54:01.721Z,19.39
2018-09-09T07:55:01.969Z,19.44
2018-09-09T07:56:02.210Z,19.78
2018-09-09T07:57:02.460Z,19.92
2018-09-09T07:58:02.703Z,20.11
2018-09-09T07:59:02.949Z,20.23
2018-09-09T08:00:03.195Z,20.41
2018-09-09T08:01:03.439Z,20.62
2018-09-09T08:02:03.683Z,20.79
2018-09-09T08:03:03.927Z,20.87
2018-09-09T08:04:04.175Z,20.73
2018-09-09T08:05:04.416Z,20.69
2018-09-09T08:06:04.656Z,20.54
2018-09-09T08:07:04.899Z,20.52
2018-09-09T08:08:05.144Z,20.43
2018-09-09T08:09:05.390Z,20.54
2018-09-09T08:10:05.637Z,20.48
2018-09-09T08:11:05.880Z,20.55
2018-09-09T08:12:06.134Z,20.55
2018-09-09T08:13:06.373Z,20.59
2018-09-09T08:14:06.618Z,20.64
2018-09-09T08:15:06.861Z,20.32
2018-09-09T08:16:07.107Z,20.38
2018-09-09T08:17:07.352Z,20.48
2018-09-09T08:18:07.598Z,20.89
2018-09-09T08:19:07.836Z,21.53
2018-09-09T08:20:08.081Z,22.00
2018-09-09T08:21:08.326Z,22.67
2018-09-09T08:22:08.577Z,22.54
2018-09-09T08:23:08.814Z,22.27
2018-09-09T08:24:09.061Z,22.42
2018-09-09T08:25:09.311Z,22.57
2018-09-09T08:26:09.557Z,23.05
2018-09-09T08:27:09.802Z,23.12
2018-09-09T08:28:10.049Z,23.02
2018-09-09T08:29:10.295Z,23.61
2018-09-09T08:30:10.546Z,23.90
2018-09-09T08:31:10.788Z,23.38
2018-09-09T08:32:11.034Z,23.65
2018-09-09T08:33:11.279Z,23.76
2018-09-09T08:34:11.527Z,24.02
2018-09-09T08:35:11.794Z,23.88
2018-09-09T08:36:12.038Z,23.83
2018-09-09T08:37:12.287Z,23.93
2018-09-09T08:38:12.535Z,23.75
2018-09-09T08:39:12.782Z,24.28
2018-09-09T08:40:13.031Z,24.73
2018-09-09T08:41:13.279Z,25.33
2018-09-09T08:42:13.528Z,25.76
2018-09-09T08:43:13.775Z,26.35
2018-09-09T08:44:14.024Z,26.65
2018-09-09T08:45:14.269Z,27.00
2018-09-09T08:46:14.520Z,27.41
2018-09-09T08:47:14.765Z,27.81
2018-09-09T08:48:15.015Z,27.97
2018-09-09T08:49:15.264Z,27.92
2018-09-09T08:50:15.511Z,27.54
2018-09-09T08:51:15.762Z,26.45
2018-09-09T08:52:16.077Z,24.99
2018-09-09T08:53:16.267Z,24.43
2018-09-09T08:54:16.508Z,24.32
2018-09-09T08:55:16.758Z,24.22
2018-09-09T08:56:17.008Z,23.85
2018-09-09T08:57:17.255Z,23.85
2018-09-09T08:58:17.504Z,23.66
2018-09-09T08:59:17.753Z,23.50
2018-09-09T09:00:18.003Z,23.68
2018-09-09T09:01:18.249Z,23.54
2018-09-09T09:02:18.498Z,23.19
2018-09-09T09:03:18.746Z,23.54
2018-09-09T09:04:18.995Z,24.21
2018-09-09T09:05:19.267Z,24.55
2018-09-09T09:06:19.513Z,25.05
2018-09-09T09:07:19.764Z,25.40
2018-09-09T09:08:20.008Z,25.98
2018-09-09T09:09:20.257Z,26.66
2018-09-09T09:10:20.505Z,27.17
2018-09-09T09:11:20.753Z,27.32
2018-09-09T09:12:21.001Z,27.51
2018-09-09T09:13:21.251Z,27.99
2018-09-09T09:14:21.531Z,28.43
2018-09-09T09:15:21.970Z,28.54
2018-09-09T09:16:21.998Z,28.71
2018-09-09T09:17:22.244Z,29.14
2018-09-09T09:18:22.492Z,28.93
2018-09-09T09:19:22.741Z,29.43
2018-09-09T09:20:22.991Z,29.71
2018-09-09T09:21:23.242Z,30.04
2018-09-09T09:22:23.495Z,30.11
2018-09-09T09:23:23.745Z,30.80
2018-09-09T09:24:23.996Z,31.17
2018-09-09T09:25:24.248Z,29.94
2018-09-09T09:26:24.499Z,28.17
2018-09-09T09:27:24.752Z,27.57
2018-09-09T09:28:25.004Z,26.43
2018-09-09T09:29:25.256Z,26.07
2018-09-09T09:30:25.508Z,25.91
2018-09-09T09:31:25.760Z,25.75
2018-09-09T09:32:26.017Z,25.20
2018-09-09T09:33:26.270Z,24.98
2018-09-09T09:34:26.518Z,24.67
2018-09-09T09:35:26.769Z,24.40
2018-09-09T09:36:27.026Z,24.37
2018-09-09T09:37:27.274Z,24.25
2018-09-09T09:38:27.529Z,24.32
2018-09-09T09:39:27.835Z,24.58
2018-09-09T09:40:28.023Z,24.68
2018-09-09T09:41:28.273Z,24.65
2018-09-09T09:42:28.524Z,24.34
2018-09-09T09:43:28.779Z,24.37
2018-09-09T09:44:29.024Z,24.22
2018-09-09T09:45:29.275Z,24.10
2018-09-09T09:46:29.528Z,23.63
2018-09-09T09:47:29.776Z,23.20
2018-09-09T09:48:30.023Z,23.17
2018-09-09T09:49:30.276Z,23.00
2018-09-09T09:50:30.525Z,23.15
2018-09-09T09:51:30.774Z,23.16
2018-09-09T09:52:31.022Z,23.16
2018-09-09T09:53:31.329Z,23.22
2018-09-09T09:54:31.518Z,23.32
2018-09-09T09:55:31.842Z,23.27
2018-09-09T09:56:32.015Z,23.13
2018-09-09T09:57:32.263Z,22.92
2018-09-09T09:58:32.510Z,23.10
2018-09-09T09:59:32.760Z,23.23
2018-09-09T10:00:33.007Z,23.27
2018-09-09T10:01:33.288Z,23.02
2018-09-09T10:02:33.502Z,23.27
2018-09-09T10:03:33.753Z,23.50
2018-09-09T10:04:33.998Z,23.93
2018-09-09T10:05:34.246Z,24.25
2018-09-09T10:06:34.496Z,24.55
2018-09-09T10:07:34.741Z,24.71
2018-09-09T10:08:34.992Z,25.17
2018-09-09T10:09:35.240Z,25.40
2018-09-09T10:10:35.493Z,25.51
2018-09-09T10:11:35.738Z,25.24
2018-09-09T10:12:35.988Z,25.24
2018-09-09T10:13:36.237Z,25.17
2018-09-09T10:14:36.485Z,25.39
2018-09-09T10:15:36.739Z,25.47
2018-09-09T10:16:36.985Z,25.58
2018-09-09T10:17:37.234Z,25.27
2018-09-09T10:18:37.485Z,25.35
2018-09-09T10:19:37.734Z,25.32
2018-09-09T10:20:37.985Z,25.87
2018-09-09T10:21:38.232Z,25.90
2018-09-09T10:22:38.482Z,25.50
2018-09-09T10:23:38.734Z,25.60
2018-09-09T10:24:38.980Z,25.76
2018-09-09T10:25:39.229Z,25.99
2018-09-09T10:26:39.481Z,26.37
2018-09-09T10:27:39.733Z,26.21
2018-09-09T10:28:39.978Z,25.98
2018-09-09T10:29:40.229Z,26.20
2018-09-09T10:30:40.479Z,26.20
2018-09-09T10:31:40.729Z,26.39
2018-09-09T10:32:40.978Z,26.15
2018-09-09T10:33:41.225Z,26.25
2018-09-09T10:34:41.476Z,26.12
2018-09-09T10:35:41.729Z,26.09
2018-09-09T10:36:41.977Z,26.52
2018-09-09T10:37:42.224Z,27.14
2018-09-09T10:38:42.475Z,27.69
2018-09-09T10:39:42.733Z,27.39
2018-09-09T10:40:42.999Z,26.57
2018-09-09T10:41:43.229Z,26.57
2018-09-09T10:42:43.481Z,27.09
2018-09-09T10:43:43.729Z,27.69
2018-09-09T10:44:43.977Z,28.25
2018-09-09T10:45:44.229Z,28.74
2018-09-09T10:46:44.551Z,29.71
2018-09-09T10:47:44.729Z,30.45
2018-09-09T10:48:44.981Z,30.31
2018-09-09T10:49:45.232Z,29.86
2018-09-09T10:50:45.481Z,30.39
2018-09-09T10:51:45.733Z,29.37
2018-09-09T10:52:45.984Z,28.56
2018-09-09T10:53:46.237Z,29.02
2018-09-09T10:54:46.489Z,29.18
2018-09-09T10:55:46.741Z,29.26
2018-09-09T10:56:46.992Z,29.43
2018-09-09T10:57:47.245Z,29.16
2018-09-09T10:58:47.545Z,29.64
2018-09-09T10:59:47.749Z,29.37
2018-09-09T11:00:48.006Z,29.57
2018-09-09T11:01:48.259Z,29.15
2018-09-09T11:02:48.515Z,28.40
2018-09-09T11:03:48.766Z,28.77
2018-09-09T11:04:49.023Z,29.46
2018-09-09T11:05:49.275Z,29.80
2018-09-09T11:06:49.535Z,30.01
2018-09-09T11:07:49.782Z,29.76
2018-09-09T11:08:50.030Z,29.63
2018-09-09T11:09:50.285Z,29.48
2018-09-09T11:10:50.538Z,29.57
2018-09-09T11:11:50.793Z,29.39
2018-09-09T11:12:51.081Z,29.70
2018-09-09T11:13:51.301Z,30.61
2018-09-09T11:14:51.556Z,30.32
2018-09-09T11:15:51.810Z,30.31
2018-09-09T11:16:52.063Z,30.51
2018-09-09T11:17:52.317Z,30.49
2018-09-09T11:18:52.591Z,30.99
2018-09-09T11:19:52.823Z,30.01
2018-09-09T11:20:53.079Z,30.08
2018-09-09T11:21:53.335Z,29.30
2018-09-09T11:22:53.586Z,29.00
2018-09-09T11:23:53.847Z,28.66
2018-09-09T11:24:54.083Z,29.45
2018-09-09T11:25:54.338Z,29.85
2018-09-09T11:26:54.592Z,30.00
2018-09-09T11:27:54.845Z,30.05
2018-09-09T11:28:55.106Z,29.98
2018-09-09T11:29:55.426Z,29.95
2018-09-09T11:30:55.608Z,29.61
2018-09-09T11:31:58.028Z,29.63
2018-09-09T11:32:56.197Z,29.61
2018-09-09T11:33:56.450Z,29.39
2018-09-09T11:34:56.702Z,29.61
2018-09-09T11:35:57.044Z,30.02
2018-09-09T11:36:57.839Z,29.30
2018-09-09T11:37:57.719Z,29.33
2018-09-09T11:38:58.051Z,28.33
2018-09-09T11:39:58.416Z,28.44
2018-09-09T11:40:58.752Z,28.51
2018-09-09T11:41:59.145Z,28.25
2018-09-09T11:42:59.414Z,28.36
2018-09-09T11:43:59.671Z,28.59
2018-09-09T11:45:00.060Z,28.39
2018-09-09T11:46:00.437Z,27.09
2018-09-09T11:47:00.820Z,26.50
2018-09-09T11:48:01.075Z,26.29
2018-09-09T11:49:01.990Z,26.09
2018-09-09T11:50:02.467Z,26.60
2018-09-09T11:51:01.975Z,26.92
2018-09-09T11:52:02.226Z,26.77
2018-09-09T11:53:02.540Z,27.12
2018-09-09T11:54:02.730Z,27.32
2018-09-09T11:55:02.980Z,27.25
2018-09-09T11:56:03.232Z,27.46
2018-09-09T11:57:03.484Z,27.78
2018-09-09T11:58:03.736Z,28.07
2018-09-09T11:59:03.989Z,27.67
2018-09-09T12:00:04.240Z,27.65
2018-09-09T12:01:04.490Z,27.79
2018-09-09T12:02:04.786Z,27.96
2018-09-09T12:03:04.994Z,28.27
2018-09-09T12:04:05.247Z,27.90
2018-09-09T12:05:05.500Z,28.19
2018-09-09T12:06:05.754Z,28.09
2018-09-09T12:07:06.004Z,28.55
2018-09-09T12:08:06.256Z,28.95
2018-09-09T12:09:06.506Z,29.11
2018-09-09T12:10:06.754Z,29.48
2018-09-09T12:11:07.004Z,29.83
2018-09-09T12:12:07.260Z,30.23
2018-09-09T12:13:07.507Z,30.45
2018-09-09T12:14:07.757Z,30.70
2018-09-09T12:15:08.010Z,31.19
2018-09-09T12:16:08.264Z,31.86
2018-09-09T12:17:08.514Z,31.31
2018-09-09T12:18:08.767Z,31.92
2018-09-09T12:19:09.021Z,32.77
2018-09-09T12:20:09.275Z,33.32
2018-09-09T12:21:09.530Z,33.82
2018-09-09T12:22:09.778Z,32.97
2018-09-09T12:23:10.027Z,31.01
2018-09-09T12:24:10.285Z,29.92
2018-09-09T12:25:10.539Z,28.76
2018-09-09T12:26:10.792Z,29.15
2018-09-09T12:27:11.045Z,28.48
2018-09-09T12:28:11.303Z,27.74
2018-09-09T12:29:11.553Z,27.62
2018-09-09T12:30:11.808Z,26.99
2018-09-09T12:31:12.061Z,27.24
2018-09-09T12:32:12.354Z,28.00
2018-09-09T12:33:12.568Z,28.49
2018-09-09T12:34:12.821Z,29.26
2018-09-09T12:35:13.077Z,28.81
2018-09-09T12:36:13.334Z,28.74
2018-09-09T12:37:13.583Z,29.11
2018-09-09T12:38:13.836Z,28.93
2018-09-09T12:39:14.088Z,28.64
2018-09-09T12:40:14.340Z,27.77
2018-09-09T12:41:14.593Z,27.66
2018-09-09T12:42:14.847Z,27.54
2018-09-09T12:43:15.102Z,28.52
2018-09-09T12:44:15.354Z,29.34
2018-09-09T12:45:15.610Z,29.55
2018-09-09T12:46:15.857Z,30.27
2018-09-09T12:47:16.173Z,31.14
2018-09-09T12:48:16.364Z,31.28
2018-09-09T12:49:16.614Z,32.18
2018-09-09T12:50:16.865Z,32.92
2018-09-09T12:51:17.117Z,33.69
2018-09-09T12:52:17.372Z,33.90
2018-09-09T12:53:17.623Z,32.45
2018-09-09T12:54:17.877Z,30.62
2018-09-09T12:55:18.131Z,29.58